createdAt,value
2018-09-14T00:00:12.622Z,16.60
2018-09-14T00:01:12.616Z,16.54
2018-09-14T00:02:12.600Z,16.42
2018-09-14T00:03:12.771Z,16.47
2018-09-14T00:04:12.580Z,16.47
2018-09-14T00:05:12.572Z,16.44
2018-09-14T00:06:12.559Z,16.52
2018-09-14T00:07:12.548Z,16.52
2018-09-14T00:08:12.603Z,16.57
2018-09-14T00:09:12.531Z,16.54
2018-09-14T00:10:12.517Z,16.67
2018-09-14T00:11:12.504Z,16.60
2018-09-14T00:12:12.493Z,16.66
2018-09-14T00:13:12.745Z,16.66
2018-09-14T00:14:12.477Z,16.57
2018-09-14T00:15:12.461Z,16.66
2018-09-14T00:16:12.450Z,16.72
2018-09-14T00:17:12.438Z,16.73
2018-09-14T00:18:13.493Z,16.84
2018-09-14T00:19:12.419Z,16.81
2018-09-14T00:20:12.418Z,16.75
2018-09-14T00:21:12.396Z,16.80
2018-09-14T00:22:12.387Z,16.82
2018-09-14T00:23:13.631Z,16.80
2018-09-14T00:24:12.364Z,16.96
2018-09-14T00:25:12.356Z,16.88
2018-09-14T00:26:12.349Z,16.78
2018-09-14T00:27:12.334Z,16.82
2018-09-14T00:28:12.544Z,16.87
2018-09-14T00:29:12.313Z,16.95
2018-09-14T00:30:12.302Z,16.87
2018-09-14T00:31:12.290Z,16.88
2018-09-14T00:32:12.296Z,16.82
2018-09-14T00:33:12.374Z,16.84
2018-09-14T00:34:12.259Z,16.84
2018-09-14T00:35:12.246Z,16.88
2018-09-14T00:36:12.235Z,16.80
2018-09-14T00:37:12.225Z,16.91
2018-09-14T00:38:12.510Z,16.98
2018-09-14T00:39:12.205Z,16.84
2018-09-14T00:40:12.193Z,16.88
2018-09-14T00:41:12.185Z,16.84
2018-09-14T00:42:12.172Z,16.77
2018-09-14T00:43:12.340Z,16.73
2018-09-14T00:44:12.152Z,16.77
2018-09-14T00:45:12.140Z,16.85
2018-09-14T00:46:12.130Z,16.87
2018-09-14T00:47:12.116Z,16.90
2018-09-14T00:48:12.173Z,16.82
2018-09-14T00:49:12.098Z,16.77
2018-09-14T00:50:12.086Z,16.82
2018-09-14T00:51:12.073Z,16.78
2018-09-14T00:52:12.064Z,16.80
2018-09-14T00:53:12.317Z,16.90
2018-09-14T00:54:12.043Z,16.81
2018-09-14T00:55:12.034Z,16.80
2018-09-14T00:56:12.020Z,16.85
2018-09-14T00:57:12.011Z,16.82
2018-09-14T00:58:12.145Z,16.81
2018-09-14T00:59:11.989Z,16.73
2018-09-14T01:00:11.981Z,16.72
2018-09-14T01:01:11.971Z,16.67
2018-09-14T01:02:11.960Z,16.72
2018-09-14T01:03:12.282Z,16.75
2018-09-14T01:04:11.935Z,16.59
2018-09-14T01:05:11.925Z,16.66
2018-09-14T01:06:11.917Z,16.70
2018-09-14T01:07:11.903Z,16.70
2018-09-14T01:08:12.111Z,16.82
2018-09-14T01:09:11.882Z,16.67
2018-09-14T01:10:11.871Z,16.67
2018-09-14T01:11:11.861Z,16.62
2018-09-14T01:12:11.849Z,16.54
2018-09-14T01:13:13.177Z,16.59
2018-09-14T01:14:11.828Z,16.62
2018-09-14T01:15:11.817Z,16.55
2018-09-14T01:16:11.806Z,16.60
2018-09-14T01:17:11.879Z,16.65
2018-09-14T01:18:12.085Z,16.60
2018-09-14T01:19:11.775Z,16.54
2018-09-14T01:20:11.784Z,16.47
2018-09-14T01:21:11.755Z,16.54
2018-09-14T01:22:11.742Z,16.48
2018-09-14T01:23:13.142Z,16.48
2018-09-14T01:24:11.719Z,16.48
2018-09-14T01:25:11.712Z,16.41
2018-09-14T01:26:11.702Z,16.41
2018-09-14T01:27:11.698Z,16.57
2018-09-14T01:28:12.053Z,16.55
2018-09-14T01:29:11.668Z,16.54
2018-09-14T01:30:11.654Z,16.54
2018-09-14T01:31:11.650Z,16.54
2018-09-14T01:32:11.635Z,16.52
2018-09-14T01:33:11.883Z,16.51
2018-09-14T01:34:11.614Z,16.54
2018-09-14T01:35:11.600Z,16.37
2018-09-14T01:36:11.593Z,16.36
2018-09-14T01:37:11.585Z,16.48
2018-09-14T01:38:11.716Z,16.33
2018-09-14T01:39:11.562Z,16.37
2018-09-14T01:40:11.548Z,16.36
2018-09-14T01:41:11.536Z,16.36
2018-09-14T01:42:11.525Z,16.41
2018-09-14T01:43:12.773Z,16.41
2018-09-14T01:44:11.506Z,16.37
2018-09-14T01:45:11.495Z,16.44
2018-09-14T01:46:11.483Z,16.47
2018-09-14T01:47:11.473Z,16.40
2018-09-14T01:48:11.683Z,16.34
2018-09-14T01:49:11.456Z,16.45
2018-09-14T01:50:11.444Z,16.48
2018-09-14T01:51:11.432Z,16.42
2018-09-14T01:52:11.425Z,16.51
2018-09-14T01:53:11.513Z,16.51
2018-09-14T01:54:11.398Z,16.44
2018-09-14T01:55:11.394Z,16.47
2018-09-14T01:56:11.377Z,16.51
2018-09-14T01:57:11.366Z,16.51
2018-09-14T01:58:11.655Z,16.50
2018-09-14T01:59:11.345Z,16.50
2018-09-14T02:00:11.339Z,16.60
2018-09-14T02:01:11.324Z,16.47
2018-09-14T02:02:12.301Z,16.54
2018-09-14T02:03:11.486Z,16.54
2018-09-14T02:04:11.291Z,16.51
2018-09-14T02:05:11.285Z,16.57
2018-09-14T02:06:11.273Z,16.57
2018-09-14T02:07:11.258Z,16.54
2018-09-14T02:08:12.545Z,16.44
2018-09-14T02:09:11.277Z,16.51
2018-09-14T02:10:11.227Z,16.62
2018-09-14T02:11:11.216Z,16.57
2018-09-14T02:12:11.207Z,16.50
2018-09-14T02:13:11.198Z,16.45
2018-09-14T02:14:11.357Z,16.52
2018-09-14T02:15:11.177Z,16.55
2018-09-14T02:16:11.162Z,16.51
2018-09-14T02:17:11.155Z,16.48
2018-09-14T02:18:11.145Z,16.41
2018-09-14T02:19:12.421Z,16.26
2018-09-14T02:20:11.120Z,16.27
2018-09-14T02:21:11.108Z,16.42
2018-09-14T02:22:11.098Z,16.34
2018-09-14T02:23:11.093Z,16.37
2018-09-14T02:24:12.251Z,16.40
2018-09-14T02:25:11.065Z,16.40
2018-09-14T02:26:11.058Z,16.41
2018-09-14T02:27:11.047Z,16.44
2018-09-14T02:28:11.035Z,16.44
2018-09-14T02:29:13.315Z,16.36
2018-09-14T02:30:11.012Z,16.37
2018-09-14T02:31:11.001Z,16.37
2018-09-14T02:32:11.006Z,16.30
2018-09-14T02:33:10.981Z,16.40
2018-09-14T02:34:11.296Z,16.36
2018-09-14T02:35:10.961Z,16.34
2018-09-14T02:36:10.947Z,16.30
2018-09-14T02:37:10.937Z,16.27
2018-09-14T02:38:10.931Z,16.32
2018-09-14T02:39:11.129Z,16.29
2018-09-14T02:40:10.908Z,16.27
2018-09-14T02:41:10.894Z,16.36
2018-09-14T02:42:10.885Z,16.32
2018-09-14T02:43:10.872Z,16.32
2018-09-14T02:44:12.189Z,16.29
2018-09-14T02:45:11.806Z,16.30
2018-09-14T02:46:10.842Z,16.32
2018-09-14T02:47:10.830Z,16.29
2018-09-14T02:48:10.822Z,16.32
2018-09-14T02:49:11.099Z,16.22
2018-09-14T02:50:10.797Z,16.27
2018-09-14T02:51:10.788Z,16.33
2018-09-14T02:52:10.777Z,16.27
2018-09-14T02:53:10.766Z,16.26
2018-09-14T02:54:10.929Z,16.26
2018-09-14T02:55:10.773Z,16.23
2018-09-14T02:56:10.737Z,16.23
2018-09-14T02:57:10.722Z,16.25
2018-09-14T02:58:10.715Z,16.27
2018-09-14T02:59:10.761Z,16.29
2018-09-14T03:00:10.762Z,16.07
2018-09-14T03:01:10.680Z,16.26
2018-09-14T03:02:10.670Z,16.16
2018-09-14T03:03:10.659Z,16.26
2018-09-14T03:04:10.898Z,16.26
2018-09-14T03:05:10.638Z,16.26
2018-09-14T03:06:10.633Z,16.14
2018-09-14T03:07:10.618Z,16.18
2018-09-14T03:08:10.607Z,16.17
2018-09-14T03:09:10.728Z,16.06
2018-09-14T03:10:10.582Z,16.03
2018-09-14T03:11:10.571Z,16.06
2018-09-14T03:12:10.570Z,15.98
2018-09-14T03:13:10.550Z,15.98
2018-09-14T03:14:10.869Z,15.91
2018-09-14T03:15:10.529Z,16.03
2018-09-14T03:16:10.519Z,15.96
2018-09-14T03:17:10.515Z,15.92
2018-09-14T03:18:10.502Z,15.91
2018-09-14T03:19:10.699Z,15.95
2018-09-14T03:20:10.475Z,15.88
2018-09-14T03:21:10.464Z,15.86
2018-09-14T03:22:10.453Z,15.95
2018-09-14T03:23:10.448Z,15.91
2018-09-14T03:24:10.529Z,15.96
2018-09-14T03:25:10.424Z,15.91
2018-09-14T03:26:10.413Z,15.89
2018-09-14T03:27:10.400Z,15.93
2018-09-14T03:28:10.392Z,15.96
2018-09-14T03:29:10.668Z,15.95
2018-09-14T03:30:10.368Z,16.01
2018-09-14T03:31:10.357Z,16.07
2018-09-14T03:32:10.398Z,15.84
2018-09-14T03:33:10.336Z,15.91
2018-09-14T03:34:10.498Z,16.07
2018-09-14T03:35:10.320Z,15.98
2018-09-14T03:36:10.302Z,16.04
2018-09-14T03:37:10.291Z,16.04
2018-09-14T03:38:10.284Z,16.01
2018-09-14T03:39:10.364Z,16.07
2018-09-14T03:40:10.264Z,16.06
2018-09-14T03:41:10.254Z,16.04
2018-09-14T03:42:10.238Z,16.08
2018-09-14T03:43:10.228Z,16.10
2018-09-14T03:44:10.470Z,16.06
2018-09-14T03:45:10.209Z,16.03
2018-09-14T03:46:10.195Z,16.07
2018-09-14T03:47:10.186Z,16.10
2018-09-14T03:48:10.175Z,16.14
2018-09-14T03:49:10.302Z,16.10
2018-09-14T03:50:10.152Z,16.06
2018-09-14T03:51:10.139Z,16.07
2018-09-14T03:52:10.132Z,16.06
2018-09-14T03:53:10.120Z,16.10
2018-09-14T03:54:11.364Z,16.10
2018-09-14T03:55:10.100Z,16.11
2018-09-14T03:56:10.090Z,16.16
2018-09-14T03:57:10.149Z,16.07
2018-09-14T03:58:10.064Z,16.01
2018-09-14T03:59:10.275Z,16.06
2018-09-14T04:00:10.044Z,16.14
2018-09-14T04:01:10.034Z,16.10
2018-09-14T04:02:10.022Z,16.08
2018-09-14T04:03:10.014Z,16.07
2018-09-14T04:04:10.101Z,16.10
2018-09-14T04:05:09.996Z,16.04
2018-09-14T04:06:09.979Z,16.08
2018-09-14T04:07:09.971Z,16.10
2018-09-14T04:08:09.957Z,16.11
2018-09-14T04:09:11.162Z,16.13
2018-09-14T04:10:09.937Z,16.01
2018-09-14T04:11:09.934Z,15.89
2018-09-14T04:12:09.915Z,15.96
2018-09-14T04:13:09.905Z,16.01
2018-09-14T04:14:10.069Z,16.01
2018-09-14T04:15:09.895Z,15.92
2018-09-14T04:16:09.873Z,16.06
2018-09-14T04:17:09.867Z,15.95
2018-09-14T04:18:09.853Z,16.01
2018-09-14T04:19:09.908Z,15.98
2018-09-14T04:20:09.830Z,15.88
2018-09-14T04:21:09.819Z,15.88
2018-09-14T04:22:09.808Z,15.91
2018-09-14T04:23:09.803Z,15.88
2018-09-14T04:24:10.039Z,15.86
2018-09-14T04:25:09.774Z,15.86
2018-09-14T04:26:09.763Z,15.92
2018-09-14T04:27:09.754Z,15.98
2018-09-14T04:28:09.745Z,15.93
2018-09-14T04:29:09.872Z,15.91
2018-09-14T04:30:09.721Z,15.92
2018-09-14T04:31:09.711Z,15.98
2018-09-14T04:32:09.702Z,15.85
2018-09-14T04:33:09.690Z,15.78
2018-09-14T04:34:10.021Z,15.80
2018-09-14T04:35:09.670Z,15.81
2018-09-14T04:36:09.656Z,15.89
2018-09-14T04:37:09.645Z,15.81
2018-09-14T04:38:09.740Z,15.81
2018-09-14T04:39:09.847Z,15.81
2018-09-14T04:40:09.620Z,15.78
2018-09-14T04:41:09.603Z,15.81
2018-09-14T04:42:09.897Z,15.85
2018-09-14T04:43:09.582Z,15.81
2018-09-14T04:44:09.673Z,15.76
2018-09-14T04:45:09.570Z,15.81
2018-09-14T04:46:09.550Z,15.81
2018-09-14T04:47:09.537Z,15.80
2018-09-14T04:48:09.529Z,15.77
2018-09-14T04:49:09.816Z,15.77
2018-09-14T04:50:09.505Z,15.81
2018-09-14T04:51:09.764Z,15.76
2018-09-14T04:52:09.493Z,15.78
2018-09-14T04:53:09.486Z,15.85
2018-09-14T04:54:09.640Z,15.78
2018-09-14T04:55:09.453Z,15.89
2018-09-14T04:56:09.441Z,15.84
2018-09-14T04:57:09.431Z,15.88
2018-09-14T04:58:09.420Z,15.89
2018-09-14T04:59:09.474Z,15.88
2018-09-14T05:00:09.401Z,15.77
2018-09-14T05:01:09.388Z,15.78
2018-09-14T05:02:09.381Z,15.77
2018-09-14T05:03:09.368Z,15.77
2018-09-14T05:04:09.611Z,15.88
2018-09-14T05:05:09.345Z,15.76
2018-09-14T05:06:09.333Z,15.80
2018-09-14T05:07:09.323Z,15.77
2018-09-14T05:08:09.311Z,15.93
2018-09-14T05:09:09.444Z,15.77
2018-09-14T05:10:09.300Z,15.89
2018-09-14T05:11:09.278Z,15.92
2018-09-14T05:12:09.269Z,15.86
2018-09-14T05:13:09.258Z,15.92
2018-09-14T05:14:09.643Z,15.88
2018-09-14T05:15:09.254Z,15.98
2018-09-14T05:16:09.228Z,15.95
2018-09-14T05:17:09.220Z,15.86
2018-09-14T05:18:09.205Z,15.86
2018-09-14T05:19:09.414Z,15.88
2018-09-14T05:20:09.183Z,15.92
2018-09-14T05:21:09.189Z,15.93
2018-09-14T05:22:09.168Z,15.99
2018-09-14T05:23:09.152Z,16.01
2018-09-14T05:24:09.313Z,15.88
2018-09-14T05:25:09.181Z,15.92
2018-09-14T05:26:09.117Z,15.88
2018-09-14T05:27:09.118Z,15.93
2018-09-14T05:28:09.101Z,15.93
2018-09-14T05:29:09.381Z,15.80
2018-09-14T05:30:09.075Z,15.85
2018-09-14T05:31:09.063Z,15.86
2018-09-14T05:32:09.058Z,15.80
2018-09-14T05:33:09.044Z,15.88
2018-09-14T05:34:09.415Z,15.86
2018-09-14T05:35:09.027Z,15.89
2018-09-14T05:36:09.011Z,15.74
2018-09-14T05:37:09.001Z,15.95
2018-09-14T05:38:09.042Z,15.80
2018-09-14T05:39:09.044Z,15.80
2018-09-14T05:40:08.968Z,15.98
2018-09-14T05:41:08.956Z,16.03
2018-09-14T05:42:08.946Z,16.10
2018-09-14T05:43:08.935Z,16.13
2018-09-14T05:44:09.182Z,16.01
2018-09-14T05:45:08.917Z,15.96
2018-09-14T05:46:08.903Z,16.03
2018-09-14T05:47:08.894Z,16.13
2018-09-14T05:48:08.883Z,16.16
2018-09-14T05:49:09.068Z,16.23
2018-09-14T05:50:08.871Z,16.26
2018-09-14T05:51:08.855Z,16.33
2018-09-14T05:52:08.837Z,16.36
2018-09-14T05:53:08.827Z,16.29
2018-09-14T05:54:10.073Z,16.17
2018-09-14T05:55:08.806Z,16.16
2018-09-14T05:56:08.795Z,15.96
2018-09-14T05:57:08.784Z,16.03
2018-09-14T05:58:08.778Z,16.11
2018-09-14T05:59:08.986Z,16.14
2018-09-14T06:00:08.751Z,16.32
2018-09-14T06:01:08.745Z,16.33
2018-09-14T06:02:08.731Z,16.44
2018-09-14T06:03:08.722Z,16.45
2018-09-14T06:04:08.815Z,16.52
2018-09-14T06:05:08.700Z,16.60
2018-09-14T06:06:08.688Z,16.48
2018-09-14T06:07:08.677Z,16.52
2018-09-14T06:08:08.667Z,16.62
2018-09-14T06:09:08.953Z,16.52
2018-09-14T06:10:08.644Z,16.63
2018-09-14T06:11:08.634Z,16.62
2018-09-14T06:12:08.623Z,16.50
2018-09-14T06:13:08.612Z,16.51
2018-09-14T06:14:08.604Z,16.14
2018-09-14T06:15:08.696Z,16.01
2018-09-14T06:16:08.581Z,16.16
2018-09-14T06:17:08.640Z,16.29
2018-09-14T06:18:08.561Z,16.36
2018-09-14T06:19:08.554Z,16.29
2018-09-14T06:20:08.847Z,16.37
2018-09-14T06:21:08.543Z,16.57
2018-09-14T06:22:08.517Z,16.54
2018-09-14T06:23:08.606Z,16.72
2018-09-14T06:24:08.495Z,16.90
2018-09-14T06:25:08.662Z,16.78
2018-09-14T06:26:08.472Z,16.82
2018-09-14T06:27:08.466Z,16.96
2018-09-14T06:28:08.453Z,17.10
2018-09-14T06:29:08.442Z,17.06
2018-09-14T06:30:08.495Z,16.92
2018-09-14T06:31:08.419Z,17.00
2018-09-14T06:32:08.412Z,16.60
2018-09-14T06:33:08.404Z,16.80
2018-09-14T06:34:08.388Z,16.69
2018-09-14T06:35:08.631Z,16.54
2018-09-14T06:36:08.367Z,16.66
2018-09-14T06:37:08.354Z,16.52
2018-09-14T06:38:08.376Z,16.67
2018-09-14T06:39:09.294Z,16.87
2018-09-14T06:40:08.459Z,16.70
2018-09-14T06:41:08.314Z,16.48
2018-09-14T06:42:08.301Z,16.42
2018-09-14T06:43:08.292Z,16.45
2018-09-14T06:44:08.281Z,16.78
2018-09-14T06:45:08.714Z,16.87
2018-09-14T06:46:08.258Z,16.90
2018-09-14T06:47:08.251Z,17.02
2018-09-14T06:48:08.237Z,17.10
2018-09-14T06:49:08.229Z,16.60
2018-09-14T06:50:08.427Z,16.63
2018-09-14T06:51:08.205Z,16.66
2018-09-14T06:52:08.232Z,16.62
2018-09-14T06:53:08.206Z,16.69
2018-09-14T06:54:08.172Z,16.84
2018-09-14T06:55:08.261Z,16.81
2018-09-14T06:56:08.158Z,16.75
2018-09-14T06:57:08.139Z,17.02
2018-09-14T06:58:08.128Z,16.98
2018-09-14T06:59:08.118Z,16.95
2018-09-14T07:00:08.416Z,17.03
2018-09-14T07:01:08.101Z,17.15
2018-09-14T07:02:08.090Z,17.38
2018-09-14T07:03:08.076Z,17.55
2018-09-14T07:04:08.066Z,17.54
2018-09-14T07:05:29.065Z,17.54
2018-09-14T07:06:08.047Z,17.60
2018-09-14T07:07:08.033Z,17.81
2018-09-14T07:08:08.028Z,17.33
2018-09-14T07:09:08.015Z,17.21
2018-09-14T07:10:08.060Z,17.49
2018-09-14T07:11:07.994Z,17.43
2018-09-14T07:12:07.984Z,17.77
2018-09-14T07:13:08.393Z,17.51
2018-09-14T07:14:07.961Z,17.40
2018-09-14T07:15:08.202Z,17.32
2018-09-14T07:16:07.940Z,17.79
2018-09-14T07:17:07.931Z,18.16
2018-09-14T07:18:07.921Z,17.81
2018-09-14T07:19:07.911Z,18.02
2018-09-14T07:20:08.036Z,18.21
2018-09-14T07:21:07.891Z,17.47
2018-09-14T07:22:07.951Z,17.14
2018-09-14T07:23:07.871Z,17.15
2018-09-14T07:24:07.860Z,17.21
2018-09-14T07:25:08.171Z,17.22
2018-09-14T07:26:07.841Z,16.98
2018-09-14T07:27:07.850Z,16.98
2018-09-14T07:28:07.824Z,17.05
2018-09-14T07:29:07.941Z,17.03
2018-09-14T07:30:08.010Z,17.07
2018-09-14T07:31:07.815Z,17.15
2018-09-14T07:32:07.782Z,17.32
2018-09-14T07:33:07.775Z,17.68
2018-09-14T07:34:07.759Z,17.35
2018-09-14T07:35:08.136Z,17.12
2018-09-14T07:36:07.740Z,17.10
2018-09-14T07:37:08.019Z,17.10
2018-09-14T07:38:08.009Z,16.96
2018-09-14T07:39:07.998Z,16.96
2018-09-14T07:40:08.276Z,17.15
2018-09-14T07:41:07.978Z,17.49
2018-09-14T07:42:07.968Z,17.55
2018-09-14T07:43:07.959Z,17.73
2018-09-14T07:44:08.298Z,17.36
2018-09-14T07:45:08.059Z,17.30
2018-09-14T07:46:08.298Z,17.51
2018-09-14T07:47:08.297Z,17.21
2018-09-14T07:48:08.347Z,17.18
2018-09-14T07:49:08.299Z,17.79
2018-09-14T07:50:07.634Z,18.17
2018-09-14T07:51:08.298Z,18.42
2018-09-14T07:52:07.551Z,18.35
2018-09-14T07:53:07.538Z,18.35
2018-09-14T07:54:07.529Z,17.70
2018-09-14T07:55:07.769Z,17.76
2018-09-14T07:56:08.298Z,17.99
2018-09-14T07:57:07.496Z,18.04
2018-09-14T07:58:07.484Z,17.32
2018-09-14T07:59:07.473Z,17.77
2018-09-14T08:00:07.902Z,17.89
2018-09-14T08:01:07.473Z,17.57
2018-09-14T08:02:07.441Z,17.28
2018-09-14T08:03:07.431Z,17.42
2018-09-14T08:04:07.418Z,17.24
2018-09-14T08:05:07.408Z,17.22
2018-09-14T08:06:07.656Z,17.00
2018-09-14T08:07:07.390Z,16.90
2018-09-14T08:08:07.376Z,16.96
2018-09-14T08:09:07.366Z,17.10
2018-09-14T08:10:07.355Z,17.22
2018-09-14T08:11:09.626Z,17.17
2018-09-14T08:12:07.337Z,17.36
2018-09-14T08:13:07.343Z,17.22
2018-09-14T08:14:07.313Z,17.28
2018-09-14T08:15:07.309Z,17.40
2018-09-14T08:16:07.618Z,17.38
2018-09-14T08:17:07.285Z,17.33
2018-09-14T08:18:07.279Z,17.36
2018-09-14T08:19:07.263Z,17.74
2018-09-14T08:20:07.302Z,17.74
2018-09-14T08:21:10.604Z,17.49
2018-09-14T08:22:07.228Z,17.70
2018-09-14T08:23:07.218Z,17.84
2018-09-14T08:24:07.212Z,17.24
2018-09-14T08:25:07.200Z,17.49
2018-09-14T08:26:07.283Z,17.80
2018-09-14T08:27:07.193Z,17.83
2018-09-14T08:28:07.167Z,17.71
2018-09-14T08:29:07.155Z,17.66
2018-09-14T08:30:07.152Z,18.29
2018-09-14T08:31:07.415Z,18.32
2018-09-14T08:32:07.121Z,18.41
2018-09-14T08:33:07.113Z,18.02
2018-09-14T08:34:07.100Z,17.92
2018-09-14T08:35:07.089Z,18.26
2018-09-14T08:36:07.254Z,18.54
2018-09-14T08:37:07.068Z,18.79
2018-09-14T08:38:07.059Z,18.54
2018-09-14T08:39:07.044Z,18.02
2018-09-14T08:40:07.034Z,17.86
2018-09-14T08:41:07.078Z,17.95
2018-09-14T08:42:07.013Z,17.96
2018-09-14T08:43:07.004Z,18.23
2018-09-14T08:44:06.990Z,18.54
2018-09-14T08:45:06.982Z,18.41
2018-09-14T08:46:06.970Z,18.57
2018-09-14T08:47:07.119Z,18.74
2018-09-14T08:48:06.949Z,18.94
2018-09-14T08:49:06.939Z,18.94
2018-09-14T08:50:06.926Z,19.16
2018-09-14T08:51:06.916Z,19.24
2018-09-14T08:52:06.949Z,18.99
2018-09-14T08:53:06.894Z,19.06
2018-09-14T08:54:06.882Z,19.38
2018-09-14T08:55:06.875Z,18.90
2018-09-14T08:56:06.868Z,18.76
2018-09-14T08:57:08.014Z,18.93
2018-09-14T08:58:06.848Z,19.27
2018-09-14T08:59:06.829Z,19.25
2018-09-14T09:00:06.818Z,19.05
2018-09-14T09:01:06.810Z,19.28
2018-09-14T09:02:06.924Z,19.23
2018-09-14T09:03:06.787Z,19.40
2018-09-14T09:04:06.780Z,19.43
2018-09-14T09:05:06.765Z,19.42
2018-09-14T09:06:06.755Z,19.34
2018-09-14T09:07:07.109Z,19.42
2018-09-14T09:08:06.735Z,19.68
2018-09-14T09:09:06.725Z,19.90
2018-09-14T09:10:06.715Z,19.98
2018-09-14T09:11:06.701Z,20.15
2018-09-14T09:12:06.900Z,20.25
2018-09-14T09:13:06.685Z,20.23
2018-09-14T09:14:06.671Z,20.10
2018-09-14T09:15:06.657Z,20.13
2018-09-14T09:16:06.647Z,20.05
2018-09-14T09:17:07.306Z,20.16
2018-09-14T09:18:06.626Z,19.24
2018-09-14T09:19:06.614Z,18.83
2018-09-14T09:20:06.604Z,19.27
2018-09-14T09:21:06.595Z,19.83
2018-09-14T09:22:06.861Z,20.54
2018-09-14T09:23:06.572Z,21.00
2018-09-14T09:24:06.563Z,20.63
2018-09-14T09:25:06.549Z,19.89
2018-09-14T09:26:06.540Z,20.22
2018-09-14T09:27:06.529Z,19.90
2018-09-14T09:28:06.601Z,20.30
2018-09-14T09:29:06.513Z,19.92
2018-09-14T09:30:06.501Z,20.00
2018-09-14T09:31:06.494Z,20.69
2018-09-14T09:32:07.307Z,21.11
2018-09-14T09:33:06.737Z,21.42
2018-09-14T09:34:06.453Z,21.52
2018-09-14T09:35:06.447Z,21.42
2018-09-14T09:36:06.451Z,20.82
2018-09-14T09:37:06.422Z,20.71
2018-09-14T09:38:06.571Z,21.03
2018-09-14T09:39:06.398Z,20.72
2018-09-14T09:40:06.389Z,19.60
2018-09-14T09:41:06.386Z,19.34
2018-09-14T09:42:06.392Z,19.83
2018-09-14T09:43:06.712Z,20.05
2018-09-14T09:44:06.424Z,20.35
2018-09-14T09:45:06.336Z,20.88
2018-09-14T09:46:06.324Z,21.58
2018-09-14T09:47:06.325Z,22.14
2018-09-14T09:48:06.534Z,21.91
2018-09-14T09:49:06.296Z,20.66
2018-09-14T09:50:06.282Z,20.48
2018-09-14T09:51:06.299Z,20.56
2018-09-14T09:52:06.262Z,20.69
2018-09-14T09:53:06.255Z,21.67
2018-09-14T09:54:09.654Z,22.42
2018-09-14T09:55:06.229Z,22.64
2018-09-14T09:56:06.218Z,22.70
2018-09-14T09:57:06.210Z,22.69
2018-09-14T09:58:06.197Z,22.86
2018-09-14T09:59:06.412Z,22.86
2018-09-14T10:00:06.180Z,22.63
2018-09-14T10:01:06.166Z,22.27
2018-09-14T10:02:06.154Z,21.40
2018-09-14T10:03:06.144Z,21.38
2018-09-14T10:04:06.310Z,21.89
2018-09-14T10:05:06.123Z,22.21
2018-09-14T10:06:06.119Z,22.27
2018-09-14T10:07:06.105Z,22.26
2018-09-14T10:08:06.090Z,22.09
2018-09-14T10:09:06.376Z,22.17
2018-09-14T10:10:06.069Z,22.38
2018-09-14T10:11:06.062Z,22.57
2018-09-14T10:12:06.051Z,22.56
2018-09-14T10:13:06.036Z,22.81
2018-09-14T10:14:07.186Z,22.76
2018-09-14T10:15:06.087Z,23.00
2018-09-14T10:16:06.007Z,22.91
2018-09-14T10:17:05.997Z,23.18
2018-09-14T10:18:05.985Z,22.72
2018-09-14T10:19:06.039Z,22.74
2018-09-14T10:20:05.963Z,22.48
2018-09-14T10:21:05.979Z,22.88
2018-09-14T10:22:05.946Z,22.97
2018-09-14T10:23:05.933Z,22.67
2018-09-14T10:24:06.176Z,22.88
2018-09-14T10:25:05.913Z,22.57
2018-09-14T10:26:05.901Z,22.38
2018-09-14T10:27:05.890Z,22.57
2018-09-14T10:28:05.883Z,22.08
2018-09-14T10:29:06.320Z,21.96
2018-09-14T10:30:05.860Z,22.15
2018-09-14T10:31:05.851Z,22.79
2018-09-14T10:32:05.841Z,23.16
2018-09-14T10:33:05.831Z,23.68
2018-09-14T10:34:10.141Z,24.05
2018-09-14T10:35:05.845Z,24.05
2018-09-14T10:36:05.799Z,23.79
2018-09-14T10:37:05.830Z,23.25
2018-09-14T10:38:05.778Z,23.42
2018-09-14T10:39:05.981Z,23.69
2018-09-14T10:40:05.778Z,23.54
2018-09-14T10:41:05.775Z,23.32
2018-09-14T10:42:05.737Z,23.54
2018-09-14T10:43:05.728Z,23.47
2018-09-14T10:44:05.714Z,22.19
2018-09-14T10:45:06.107Z,21.90
2018-09-14T10:46:05.693Z,22.20
2018-09-14T10:47:05.728Z,22.79
2018-09-14T10:48:05.670Z,23.01
2018-09-14T10:49:05.659Z,23.53
2018-09-14T10:50:06.852Z,23.97
2018-09-14T10:51:05.637Z,24.27
2018-09-14T10:52:05.628Z,24.59
2018-09-14T10:53:05.616Z,24.49
2018-09-14T10:54:05.654Z,24.02
2018-09-14T10:55:05.685Z,24.06
2018-09-14T10:56:05.587Z,21.68
2018-09-14T10:57:06.147Z,21.64
2018-09-14T10:58:05.567Z,22.48
2018-09-14T10:59:05.554Z,22.72
2018-09-14T11:00:05.825Z,22.04
2018-09-14T11:01:05.539Z,21.53
2018-09-14T11:02:05.523Z,21.55
2018-09-14T11:03:05.511Z,21.38
2018-09-14T11:04:05.502Z,21.22
2018-09-14T11:05:05.493Z,21.37
2018-09-14T11:06:05.558Z,21.64
2018-09-14T11:07:05.646Z,21.40
2018-09-14T11:08:05.458Z,21.58
2018-09-14T11:09:05.448Z,21.38
2018-09-14T11:10:05.518Z,21.22
2018-09-14T11:11:05.698Z,20.91
2018-09-14T11:12:05.435Z,20.97
2018-09-14T11:13:05.531Z,21.27
2018-09-14T11:14:05.394Z,21.75
2018-09-14T11:15:05.388Z,22.12
2018-09-14T11:16:05.528Z,21.70
2018-09-14T11:17:05.366Z,21.22
2018-09-14T11:18:05.354Z,21.81
2018-09-14T11:19:05.388Z,22.31
2018-09-14T11:20:05.338Z,22.30
2018-09-14T11:21:06.588Z,22.67
2018-09-14T11:22:05.313Z,22.89
2018-09-14T11:23:05.302Z,22.96
2018-09-14T11:24:05.293Z,22.81
2018-09-14T11:25:05.334Z,22.69
2018-09-14T11:26:06.418Z,22.74
2018-09-14T11:27:05.264Z,22.42
2018-09-14T11:28:05.385Z,22.38
2018-09-14T11:29:05.245Z,22.45
2018-09-14T11:30:05.232Z,22.41
2018-09-14T11:31:08.405Z,22.27
2018-09-14T11:32:05.210Z,22.09
2018-09-14T11:33:05.204Z,22.26
2018-09-14T11:34:05.190Z,22.29
2018-09-14T11:35:05.183Z,22.48
2018-09-14T11:36:06.392Z,22.67
2018-09-14T11:37:05.176Z,22.76
2018-09-14T11:38:05.177Z,22.51
2018-09-14T11:39:05.141Z,22.64
2018-09-14T11:40:05.129Z,22.69
2018-09-14T11:41:05.120Z,22.82
2018-09-14T11:42:05.209Z,22.96
2018-09-14T11:43:05.100Z,23.21
2018-09-14T11:44:05.088Z,23.39
2018-09-14T11:45:05.117Z,23.49
2018-09-14T11:46:05.076Z,23.69
2018-09-14T11:47:07.494Z,23.87
2018-09-14T11:48:05.048Z,23.84
2018-09-14T11:49:05.035Z,23.42
2018-09-14T11:50:05.027Z,23.45
2018-09-14T11:51:05.015Z,23.59
2018-09-14T11:52:06.097Z,24.00
2018-09-14T11:53:04.994Z,24.11
2018-09-14T11:54:05.019Z,23.97
2018-09-14T11:55:04.976Z,22.96
2018-09-14T11:56:04.961Z,22.86
2018-09-14T11:57:05.005Z,23.34
2018-09-14T11:58:04.938Z,23.63
2018-09-14T11:59:04.930Z,23.97
2018-09-14T12:00:04.921Z,23.59
2018-09-14T12:01:04.907Z,23.86
2018-09-14T12:02:05.159Z,24.08
2018-09-14T12:03:04.887Z,23.87
2018-09-14T12:04:04.904Z,23.87
2018-09-14T12:05:04.871Z,23.82
2018-09-14T12:06:04.859Z,23.92
2018-09-14T12:07:04.972Z,23.23
2018-09-14T12:08:04.838Z,22.21
2018-09-14T12:09:04.824Z,21.74
2018-09-14T12:10:04.815Z,21.37
2018-09-14T12:11:04.806Z,22.12
2018-09-14T12:12:04.795Z,21.90
2018-09-14T12:13:05.016Z,21.33
2018-09-14T12:14:04.826Z,21.98
2018-09-14T12:15:04.760Z,22.21
2018-09-14T12:16:04.751Z,22.56
2018-09-14T12:17:04.744Z,22.48
2018-09-14T12:18:04.853Z,22.52
2018-09-14T12:19:04.722Z,22.66
2018-09-14T12:20:04.710Z,23.00
2018-09-14T12:21:04.697Z,23.14
2018-09-14T12:22:04.716Z,22.88
2018-09-14T12:23:04.985Z,22.81
2018-09-14T12:24:04.669Z,22.82
2018-09-14T12:25:04.670Z,22.86
2018-09-14T12:26:04.648Z,22.85
2018-09-14T12:27:04.637Z,22.82
2018-09-14T12:28:04.816Z,22.36
2018-09-14T12:29:04.618Z,22.17
2018-09-14T12:30:04.606Z,22.20
2018-09-14T12:31:04.602Z,22.24
2018-09-14T12:32:04.592Z,22.19
2018-09-14T12:33:04.960Z,22.35
2018-09-14T12:34:04.569Z,22.56
2018-09-14T12:35:04.556Z,22.82
2018-09-14T12:36:04.548Z,22.94
2018-09-14T12:37:04.540Z,23.09
2018-09-14T12:38:05.334Z,22.51
2018-09-14T12:39:04.522Z,22.82
2018-09-14T12:40:04.504Z,22.48
2018-09-14T12:41:04.495Z,22.79
2018-09-14T12:42:04.484Z,23.26
2018-09-14T12:43:04.618Z,23.29
2018-09-14T12:44:04.463Z,22.69
2018-09-14T12:45:04.454Z,22.93
2018-09-14T12:46:04.469Z,23.32
2018-09-14T12:47:04.548Z,23.45
2018-09-14T12:48:04.860Z,23.72
2018-09-14T12:49:04.413Z,23.14
2018-09-14T12:50:04.486Z,23.01
2018-09-14T12:51:04.392Z,23.34
2018-09-14T12:52:04.416Z,23.12